createdAt,value
2019-01-15T00:01:38.376Z,-1.04
2019-01-15T00:04:09.537Z,-1.07
2019-01-15T00:06:40.355Z,-1.06
2019-01-15T00:09:11.631Z,-1.05
2019-01-15T00:11:42.894Z,-1.04
2019-01-15T00:14:14.746Z,-1.05
2019-01-15T00:16:45.751Z,-1.08
2019-01-15T00:19:16.575Z,-1.09
2019-01-15T00:21:47.738Z,-1.09
2019-01-15T00:24:20.514Z,-1.06
2019-01-15T00:26:51.872Z,-1.05
2019-01-15T00:29:22.938Z,-1.06
2019-01-15T00:31:53.857Z,-1.07
2019-01-15T00:34:25.397Z,-1.03
2019-01-15T00:36:58.378Z,-1.03
2019-01-15T00:39:29.203Z,-1.02
2019-01-15T00:42:01.104Z,-0.99
2019-01-15T00:44:32.621Z,-0.99
2019-01-15T00:47:06.600Z,-0.98
2019-01-15T00:49:43.285Z,-0.97
2019-01-15T00:52:14.330Z,-0.94
2019-01-15T00:54:45.138Z,-0.97
2019-01-15T00:57:17.240Z,-0.96
2019-01-15T00:59:48.069Z,-0.93
2019-01-15T01:02:18.875Z,-0.91
2019-01-15T01:04:50.066Z,-0.92
2019-01-15T01:07:20.906Z,-0.88
2019-01-15T01:09:51.781Z,-0.84
2019-01-15T01:12:22.639Z,-0.85
2019-01-15T01:14:53.426Z,-0.83
2019-01-15T01:17:24.306Z,-0.78
2019-01-15T01:19:55.429Z,-0.78
2019-01-15T01:22:26.696Z,-0.78
2019-01-15T01:24:57.884Z,-0.81
2019-01-15T01:27:29.101Z,-0.82
2019-01-15T01:30:00.916Z,-0.80
2019-01-15T01:32:32.060Z,-0.79
2019-01-15T01:35:02.886Z,-0.79
2019-01-15T01:37:34.132Z,-0.76
2019-01-15T01:40:06.119Z,-0.75
2019-01-15T01:42:36.906Z,-0.72
2019-01-15T01:45:13.376Z,-0.72
2019-01-15T01:47:49.935Z,-0.69
2019-01-15T01:50:20.734Z,-0.68
2019-01-15T01:52:55.251Z,-0.66
2019-01-15T01:55:28.123Z,-0.66
2019-01-15T01:58:01.858Z,-0.65
2019-01-15T02:00:34.682Z,-0.64
2019-01-15T02:03:06.987Z,-0.62
2019-01-15T02:05:38.155Z,-0.61
2019-01-15T02:08:08.978Z,-0.64
2019-01-15T02:10:40.779Z,-0.61
2019-01-15T02:13:13.756Z,-0.58
2019-01-15T02:15:44.521Z,-0.57
2019-01-15T02:18:16.854Z,-0.59
2019-01-15T02:20:47.901Z,-0.60
2019-01-15T02:23:19.437Z,-0.59
2019-01-15T02:25:51.621Z,-0.58
2019-01-15T02:28:25.449Z,-0.55
2019-01-15T02:30:56.216Z,-0.52
2019-01-15T02:33:27.745Z,-0.53
2019-01-15T02:36:02.544Z,-0.54
2019-01-15T02:38:33.340Z,-0.52
2019-01-15T02:41:04.476Z,-0.52
2019-01-15T02:43:35.295Z,-0.52
2019-01-15T02:46:06.986Z,-0.49
2019-01-15T02:48:37.771Z,-0.48
2019-01-15T02:51:09.519Z,-0.46
2019-01-15T02:53:40.305Z,-0.44
2019-01-15T02:56:11.152Z,-0.45
2019-01-15T02:58:41.911Z,-0.43
2019-01-15T03:01:12.710Z,-0.42
2019-01-15T03:03:43.813Z,-0.41
2019-01-15T03:06:15.676Z,-0.40
2019-01-15T03:08:46.420Z,-0.39
2019-01-15T03:11:17.231Z,-0.39
2019-01-15T03:13:48.281Z,-0.40
2019-01-15T03:16:19.132Z,-0.34
2019-01-15T03:18:49.924Z,-0.32
2019-01-15T03:21:20.745Z,-0.30
2019-01-15T03:23:53.970Z,-0.31
2019-01-15T03:26:24.817Z,-0.30
2019-01-15T03:28:55.664Z,-0.27
2019-01-15T03:31:26.503Z,-0.29
2019-01-15T03:33:57.340Z,-0.27
2019-01-15T03:36:30.609Z,-0.29
2019-01-15T03:39:01.682Z,-0.26
2019-01-15T03:41:34.060Z,-0.28
2019-01-15T03:44:04.769Z,-0.28
2019-01-15T03:46:35.653Z,-0.27
2019-01-15T03:49:06.757Z,-0.25
2019-01-15T03:51:38.726Z,-0.26
2019-01-15T03:54:13.822Z,-0.28
2019-01-15T03:56:44.624Z,-0.24
2019-01-15T03:59:16.734Z,-0.23
2019-01-15T04:01:48.529Z,-0.27
2019-01-15T04:04:20.088Z,-0.26
2019-01-15T04:06:51.023Z,-0.25
2019-01-15T04:09:22.815Z,-0.21
2019-01-15T04:11:53.638Z,-0.22
2019-01-15T04:14:24.506Z,-0.22
2019-01-15T04:16:55.371Z,-0.22
2019-01-15T04:19:26.521Z,-0.22
2019-01-15T04:21:57.631Z,-0.24
2019-01-15T04:24:28.401Z,-0.27
2019-01-15T04:26:59.479Z,-0.21
2019-01-15T04:29:30.329Z,-0.24
2019-01-15T04:32:01.488Z,-0.25
2019-01-15T04:34:32.229Z,-0.23
2019-01-15T04:37:03.048Z,-0.23
2019-01-15T04:39:33.887Z,-0.24
2019-01-15T04:42:07.623Z,-0.23
2019-01-15T04:44:38.492Z,-0.23
2019-01-15T04:47:09.571Z,-0.26
2019-01-15T04:49:40.379Z,-0.21
2019-01-15T04:52:13.947Z,-0.22
2019-01-15T04:54:45.069Z,-0.21
2019-01-15T04:57:18.539Z,-0.18
2019-01-15T04:59:49.863Z,-0.21
2019-01-15T05:02:20.936Z,-0.21
2019-01-15T05:04:51.715Z,-0.21
2019-01-15T05:07:22.609Z,-0.21
2019-01-15T05:09:53.480Z,-0.24
2019-01-15T05:12:24.340Z,-0.23
2019-01-15T05:14:55.163Z,-0.27
2019-01-15T05:17:25.988Z,-0.22
2019-01-15T05:20:07.465Z,-0.23
2019-01-15T05:22:38.465Z,-0.23
2019-01-15T05:25:12.068Z,-0.22
2019-01-15T05:27:43.258Z,-0.26
2019-01-15T05:30:24.935Z,-0.24
2019-01-15T05:32:55.769Z,-0.23
2019-01-15T05:35:26.906Z,-0.23
2019-01-15T05:38:00.476Z,-0.22
2019-01-15T05:40:31.302Z,-0.19
2019-01-15T05:43:08.102Z,-0.21
2019-01-15T05:45:40.995Z,-0.20
2019-01-15T05:48:27.907Z,-0.19
2019-01-15T05:51:26.028Z,-0.21
2019-01-15T05:54:04.989Z,-0.24
2019-01-15T05:56:35.836Z,-0.28
2019-01-15T05:59:07.652Z,-0.30
2019-01-15T06:01:39.835Z,-0.32
2019-01-15T06:04:10.613Z,-0.32
2019-01-15T06:06:41.422Z,-0.33
2019-01-15T06:09:14.089Z,-0.35
2019-01-15T06:11:45.033Z,-0.34
2019-01-15T06:14:18.047Z,-0.34
2019-01-15T06:16:50.559Z,-0.26
2019-01-15T06:19:21.365Z,-0.25
2019-01-15T06:21:57.199Z,-0.26
2019-01-15T06:24:39.182Z,-0.27
2019-01-15T06:27:12.246Z,-0.29
2019-01-15T06:29:43.362Z,-0.30
2019-01-15T06:32:16.336Z,-0.30
2019-01-15T06:34:54.921Z,-0.28
2019-01-15T06:37:29.155Z,-0.28
2019-01-15T06:40:00.017Z,-0.29
2019-01-15T06:42:30.853Z,-0.27
2019-01-15T06:45:02.157Z,-0.32
2019-01-15T06:47:40.665Z,-0.33
2019-01-15T06:50:09.218Z,-0.33
2019-01-15T06:52:40.372Z,-0.34
2019-01-15T06:55:12.853Z,-0.37
2019-01-15T06:57:44.721Z,-0.37
2019-01-15T07:00:19.049Z,-0.39
2019-01-15T07:02:49.935Z,-0.39
2019-01-15T07:05:21.411Z,-0.35
2019-01-15T07:07:52.515Z,-0.38
2019-01-15T07:10:27.454Z,-0.40
2019-01-15T07:12:58.605Z,-0.43
2019-01-15T07:15:33.130Z,-0.43
2019-01-15T07:18:05.449Z,-0.42
2019-01-15T07:20:36.753Z,-0.41
2019-01-15T07:23:09.712Z,-0.42
2019-01-15T07:25:40.554Z,-0.42
2019-01-15T07:28:11.385Z,-0.41
2019-01-15T07:31:06.044Z,-0.40
2019-01-15T07:33:40.513Z,-0.38
2019-01-15T07:36:16.620Z,-0.34
2019-01-15T07:38:47.423Z,-0.34
2019-01-15T07:41:18.464Z,-0.34
2019-01-15T07:43:49.688Z,-0.29
2019-01-15T07:46:23.399Z,-0.25
2019-01-15T07:48:54.420Z,-0.26
2019-01-15T07:51:25.473Z,-0.24
2019-01-15T07:53:56.293Z,-0.23
2019-01-15T07:56:28.807Z,-0.21
2019-01-15T07:58:59.639Z,-0.18
2019-01-15T08:01:30.467Z,-0.15
2019-01-15T08:04:01.588Z,-0.10
2019-01-15T08:06:32.402Z,-0.09
2019-01-15T08:09:05.109Z,-0.08
2019-01-15T08:11:38.359Z,-0.03
2019-01-15T08:14:12.087Z,0.04
2019-01-15T08:16:42.348Z,0.09
2019-01-15T08:19:13.143Z,0.12
2019-01-15T08:21:44.383Z,0.17
2019-01-15T08:24:17.195Z,0.17
2019-01-15T08:26:49.539Z,0.18
2019-01-15T08:29:23.314Z,0.20
2019-01-15T08:31:54.572Z,0.23
2019-01-15T08:34:25.287Z,0.27
2019-01-15T08:36:59.782Z,0.29
2019-01-15T08:39:30.535Z,0.32
2019-01-15T08:42:01.737Z,0.32
2019-01-15T08:44:34.543Z,0.34
2019-01-15T08:47:07.282Z,0.38
2019-01-15T08:49:39.759Z,0.42
2019-01-15T08:52:10.595Z,0.42
2019-01-15T08:54:41.507Z,0.43
2019-01-15T08:57:12.504Z,0.44
2019-01-15T08:59:49.406Z,0.47
2019-01-15T09:02:21.495Z,0.48
2019-01-15T09:04:52.302Z,0.53
2019-01-15T09:07:23.213Z,0.55
2019-01-15T09:09:54.025Z,0.57
2019-01-15T09:12:26.225Z,0.61
2019-01-15T09:15:01.730Z,0.65
2019-01-15T09:17:41.535Z,0.63
2019-01-15T09:20:18.128Z,0.65
2019-01-15T09:22:51.213Z,0.70
2019-01-15T09:25:21.944Z,0.71
2019-01-15T09:27:55.360Z,0.76
2019-01-15T09:30:28.941Z,0.79
2019-01-15T09:32:59.739Z,0.81
2019-01-15T09:35:31.222Z,0.86
2019-01-15T09:38:03.481Z,0.89
2019-01-15T09:40:35.373Z,0.91
2019-01-15T09:43:07.232Z,0.96
2019-01-15T09:45:40.193Z,1.06
2019-01-15T09:48:17.741Z,1.18
2019-01-15T09:50:49.866Z,1.29
2019-01-15T09:53:24.249Z,1.40
2019-01-15T09:55:59.794Z,1.51
2019-01-15T09:58:32.938Z,1.50
2019-01-15T10:01:03.960Z,1.40
2019-01-15T10:03:34.758Z,1.36
2019-01-15T10:06:09.087Z,1.43
2019-01-15T10:08:41.326Z,1.53
2019-01-15T10:11:14.188Z,1.56
2019-01-15T10:13:50.810Z,1.46
2019-01-15T10:16:21.614Z,1.53
2019-01-15T10:18:54.505Z,1.47
2019-01-15T10:21:28.219Z,1.60
2019-01-15T10:24:02.745Z,1.68
2019-01-15T10:26:33.989Z,1.64
2019-01-15T10:29:05.074Z,1.68
2019-01-15T10:32:39.577Z,1.62
2019-01-15T10:35:32.888Z,1.55
2019-01-15T10:38:05.090Z,1.51
2019-01-15T10:40:39.319Z,1.61
2019-01-15T10:43:13.396Z,1.59
2019-01-15T10:45:44.656Z,1.58
2019-01-15T10:48:23.432Z,1.57
2019-01-15T10:50:56.980Z,1.56
2019-01-15T10:53:29.364Z,1.56
2019-01-15T10:56:00.509Z,1.54
2019-01-15T10:58:31.429Z,1.49
2019-01-15T11:01:03.578Z,1.35
2019-01-15T11:03:38.664Z,1.35
2019-01-15T11:06:15.443Z,1.45
2019-01-15T11:08:46.366Z,1.43
2019-01-15T11:11:18.098Z,1.51
2019-01-15T11:13:48.964Z,1.53
2019-01-15T11:16:21.080Z,1.55
2019-01-15T11:18:52.090Z,1.58
2019-01-15T11:21:22.765Z,1.57
2019-01-15T11:23:53.484Z,1.52
2019-01-15T11:26:28.244Z,1.53
2019-01-15T11:29:04.521Z,1.52
2019-01-15T11:31:35.463Z,1.49
2019-01-15T11:34:06.685Z,1.54
2019-01-15T11:36:37.649Z,1.52
2019-01-15T11:39:20.883Z,1.50
2019-01-15T11:41:57.674Z,1.47
2019-01-15T11:44:29.433Z,1.51
2019-01-15T11:47:00.202Z,1.57
2019-01-15T11:49:31.253Z,1.58
2019-01-15T11:52:01.985Z,1.58
2019-01-15T11:54:36.944Z,1.59
2019-01-15T11:57:13.746Z,1.60
2019-01-15T11:59:44.505Z,1.57
2019-01-15T12:02:24.128Z,1.55
2019-01-15T12:05:19.117Z,1.52
2019-01-15T12:08:08.868Z,1.48
2019-01-15T12:11:07.352Z,1.47
2019-01-15T12:14:00.404Z,1.47
2019-01-15T12:16:53.021Z,1.48
2019-01-15T12:19:55.752Z,1.47
2019-01-15T12:22:46.078Z,1.44
2019-01-15T12:25:42.458Z,1.41
2019-01-15T12:28:43.397Z,1.39
2019-01-15T12:31:42.603Z,1.40
2019-01-15T12:34:33.856Z,1.40
2019-01-15T12:37:39.384Z,1.39
2019-01-15T12:40:32.232Z,1.35
2019-01-15T12:43:26.963Z,1.32
2019-01-15T12:46:22.404Z,1.31
2019-01-15T12:49:24.728Z,1.28
2019-01-15T12:52:17.140Z,1.28
2019-01-15T12:55:08.321Z,1.22
2019-01-15T12:58:01.841Z,1.24
2019-01-15T13:01:03.535Z,1.24
2019-01-15T13:03:59.307Z,1.24
2019-01-15T13:06:52.096Z,1.17
2019-01-15T13:09:40.992Z,1.14
2019-01-15T13:12:37.055Z,1.11
2019-01-15T13:15:34.809Z,1.08
2019-01-15T13:18:30.774Z,1.10
2019-01-15T13:21:18.524Z,1.10
2019-01-15T13:23:59.419Z,1.11
2019-01-15T13:26:47.668Z,1.15
2019-01-15T13:29:37.638Z,1.14
2019-01-15T13:32:25.097Z,1.15
2019-01-15T13:35:33.494Z,1.15
2019-01-15T13:38:35.478Z,1.16
2019-01-15T13:41:44.104Z,1.15
2019-01-15T13:44:32.320Z,1.18
2019-01-15T13:47:28.543Z,1.22
2019-01-15T13:50:17.010Z,1.26
2019-01-15T13:53:07.026Z,1.27
2019-01-15T13:56:05.991Z,1.25
2019-01-15T13:59:00.471Z,1.26
2019-01-15T14:01:57.709Z,1.24
2019-01-15T14:04:38.504Z,1.23
2019-01-15T14:07:36.353Z,1.21
2019-01-15T14:10:23.570Z,1.18
2019-01-15T14:18:06.418Z,1.19
2019-01-15T14:21:15.056Z,1.17
2019-01-15T14:24:11.584Z,1.16
2019-01-15T14:27:13.170Z,1.15
2019-01-15T14:30:01.439Z,1.16
2019-01-15T14:33:04.125Z,1.15
2019-01-15T14:36:00.166Z,1.14
2019-01-15T14:38:55.773Z,1.13
2019-01-15T14:41:46.963Z,1.12
2019-01-15T14:44:40.823Z,1.10
2019-01-15T14:47:30.853Z,1.10
2019-01-15T14:50:38.809Z,1.08
2019-01-15T14:53:42.339Z,1.07
2019-01-15T14:56:32.767Z,1.05
2019-01-15T14:59:23.842Z,1.04
2019-01-15T15:02:25.205Z,1.00
2019-01-15T15:05:13.803Z,0.98
2019-01-15T15:08:03.180Z,0.93
2019-01-15T15:11:06.956Z,0.91
2019-01-15T15:14:02.475Z,0.91
2019-01-15T15:16:46.445Z,0.89
2019-01-15T15:19:41.073Z,0.89
2019-01-15T15:22:39.257Z,0.91
2019-01-15T15:25:42.990Z,0.93
2019-01-15T15:28:35.440Z,0.91
2019-01-15T15:31:33.741Z,0.93
2019-01-15T15:34:23.674Z,0.93
2019-01-15T15:37:17.861Z,0.93
2019-01-15T15:40:21.397Z,0.95
2019-01-15T15:43:27.330Z,0.95
2019-01-15T15:46:17.646Z,0.96
2019-01-15T15:49:09.230Z,0.98
2019-01-15T15:52:03.209Z,0.99
2019-01-15T15:55:04.017Z,1.00
2019-01-15T15:58:02.116Z,1.01
2019-01-15T16:00:50.590Z,1.04
2019-01-15T16:03:42.704Z,1.09
2019-01-15T16:06:36.379Z,1.09
2019-01-15T16:09:22.680Z,1.10
2019-01-15T16:12:12.382Z,1.17
2019-01-15T16:14:59.336Z,1.18
2019-01-15T16:17:48.486Z,1.18
2019-01-15T16:20:36.640Z,1.22
2019-01-15T16:23:37.199Z,1.25
2019-01-15T16:26:35.349Z,1.26
2019-01-15T16:29:38.459Z,1.27
2019-01-15T16:32:50.820Z,1.30
2019-01-15T16:35:39.206Z,1.29
2019-01-15T16:38:32.217Z,1.30
2019-01-15T16:41:30.462Z,1.32
2019-01-15T16:44:40.308Z,1.35
2019-01-15T16:47:35.761Z,1.36
2019-01-15T16:50:30.318Z,1.41
2019-01-15T16:53:24.386Z,1.41
2019-01-15T16:56:24.745Z,1.45
2019-01-15T16:59:20.666Z,1.41
2019-01-15T17:02:16.453Z,1.43
2019-01-15T17:05:28.937Z,1.47
2019-01-15T17:08:17.168Z,1.44
2019-01-15T17:11:14.585Z,1.44
2019-01-15T17:14:08.626Z,1.46
2019-01-15T17:17:11.901Z,1.42
2019-01-15T17:19:57.758Z,1.46
2019-01-15T17:23:12.848Z,1.50
2019-01-15T17:26:09.314Z,1.51
2019-01-15T17:28:58.772Z,1.47
2019-01-15T17:31:47.573Z,1.49
2019-01-15T17:34:41.360Z,1.53
2019-01-15T17:37:48.119Z,1.54
2019-01-15T17:40:36.232Z,1.56
2019-01-15T17:43:27.826Z,1.60
2019-01-15T17:46:20.242Z,1.61
2019-01-15T17:49:14.416Z,1.60
2019-01-15T17:52:16.016Z,1.57
2019-01-15T17:55:26.442Z,1.56
2019-01-15T17:58:10.929Z,1.59
2019-01-15T18:01:07.713Z,1.63
2019-01-15T18:04:21.428Z,1.64
2019-01-15T18:07:12.533Z,1.64
2019-01-15T18:09:59.579Z,1.67
2019-01-15T18:12:48.229Z,1.64
2019-01-15T18:15:37.806Z,1.67
2019-01-15T18:18:43.115Z,1.68
2019-01-15T18:21:52.022Z,1.72
2019-01-15T18:24:58.489Z,1.71
2019-01-15T18:27:47.758Z,1.68
2019-01-15T18:30:34.130Z,1.69
2019-01-15T18:33:25.234Z,1.68
2019-01-15T18:36:20.944Z,1.66
2019-01-15T18:39:10.330Z,1.66
2019-01-15T18:41:51.064Z,1.72
2019-01-15T18:44:40.767Z,1.74
2019-01-15T18:47:32.041Z,1.70
2019-01-15T18:50:22.761Z,1.73
2019-01-15T18:53:30.096Z,1.78
2019-01-15T18:56:23.363Z,1.78
2019-01-15T18:59:14.911Z,1.79
2019-01-15T19:02:05.164Z,1.80
2019-01-15T19:04:55.372Z,1.80
2019-01-15T19:08:00.358Z,1.85
2019-01-15T19:10:52.876Z,1.80
2019-01-15T19:13:34.741Z,1.83
2019-01-15T19:16:36.228Z,1.91
2019-01-15T19:19:24.700Z,1.89
2019-01-15T19:22:26.735Z,1.92
2019-01-15T19:25:51.843Z,1.94
2019-01-15T19:28:36.109Z,1.90
2019-01-15T19:31:28.726Z,1.93
2019-01-15T19:34:22.443Z,1.87
2019-01-15T19:37:18.512Z,1.85
2019-01-15T19:40:01.969Z,1.88
2019-01-15T19:42:45.278Z,1.90
2019-01-15T19:45:43.878Z,1.90
2019-01-15T19:48:29.345Z,1.87
2019-01-15T19:51:17.292Z,1.84
2019-01-15T19:54:16.676Z,1.84
2019-01-15T19:57:04.195Z,1.86
2019-01-15T20:00:13.037Z,1.86
2019-01-15T20:03:10.098Z,1.85
2019-01-15T20:05:59.091Z,1.87
2019-01-15T20:08:56.070Z,1.86
2019-01-15T20:11:54.127Z,1.88
2019-01-15T20:14:44.230Z,1.89
2019-01-15T20:17:34.293Z,1.93
2019-01-15T20:20:31.586Z,1.98
2019-01-15T20:23:21.351Z,1.96
2019-01-15T20:26:13.806Z,1.92
2019-01-15T20:29:02.170Z,1.93
2019-01-15T20:32:03.252Z,1.89
2019-01-15T20:35:10.720Z,1.89
2019-01-15T20:38:24.403Z,1.91
2019-01-15T20:41:22.942Z,1.89
2019-01-15T20:44:15.298Z,1.92
2019-01-15T20:47:26.258Z,1.88
2019-01-15T20:50:34.125Z,1.89
2019-01-15T20:53:30.903Z,1.91
2019-01-15T20:56:36.574Z,1.91
2019-01-15T20:59:25.004Z,1.90
2019-01-15T21:02:14.875Z,1.89
2019-01-15T21:05:05.974Z,1.92
2019-01-15T21:08:03.439Z,1.94
2019-01-15T21:10:53.082Z,1.91
2019-01-15T21:13:41.333Z,1.92
2019-01-15T21:16:31.539Z,1.90
2019-01-15T21:19:39.518Z,1.88
2019-01-15T21:22:31.855Z,1.86
2019-01-15T21:25:39.379Z,1.82
2019-01-15T21:28:37.163Z,1.76
2019-01-15T21:31:29.591Z,1.74
2019-01-15T21:34:25.209Z,1.68
2019-01-15T21:37:17.778Z,1.70
2019-01-15T21:40:26.876Z,1.70
2019-01-15T21:43:20.547Z,1.67
2019-01-15T21:46:18.530Z,1.69
2019-01-15T21:49:20.317Z,1.68
2019-01-15T21:52:23.065Z,1.67
2019-01-15T21:55:13.011Z,1.63
2019-01-15T21:58:18.226Z,1.65
2019-01-15T22:01:11.659Z,1.63
2019-01-15T22:04:10.030Z,1.63
2019-01-15T22:07:02.738Z,1.62
2019-01-15T22:10:01.954Z,1.61
2019-01-15T22:12:54.603Z,1.60
2019-01-15T22:15:56.541Z,1.60
2019-01-15T22:18:46.856Z,1.64
2019-01-15T22:21:43.397Z,1.63
2019-01-15T22:24:42.681Z,1.68
2019-01-15T22:27:31.001Z,1.64
2019-01-15T22:30:20.672Z,1.65
2019-01-15T22:33:15.639Z,1.62
2019-01-15T22:36:15.083Z,1.59
2019-01-15T22:39:08.328Z,1.59
2019-01-15T22:42:04.241Z,1.57
2019-01-15T22:45:10.438Z,1.57
2019-01-15T22:48:11.933Z,1.54
2019-01-15T22:51:19.404Z,1.57
2019-01-15T22:54:26.920Z,1.59
2019-01-15T22:57:18.325Z,1.59
2019-01-15T23:00:16.531Z,1.60
2019-01-15T23:03:10.689Z,1.58
2019-01-15T23:05:59.023Z,1.54
2019-01-15T23:08:49.078Z,1.49
2019-01-15T23:11:37.371Z,1.48
2019-01-15T23:14:31.732Z,1.48
2019-01-15T23:17:25.435Z,1.50
2019-01-15T23:20:22.110Z,1.56
2019-01-15T23:23:14.981Z,1.57
2019-01-15T23:26:08.217Z,1.57
2019-01-15T23:29:01.552Z,1.58
2019-01-15T23:31:51.601Z,1.63
2019-01-15T23:34:39.563Z,1.66
2019-01-15T23:37:25.712Z,1.69
2019-01-15T23:40:15.438Z,1.70
2019-01-15T23:43:05.634Z,1.70
2019-01-15T23:45:53.685Z,1.67
2019-01-15T23:48:46.109Z,1.67
2019-01-15T23:51:41.401Z,1.67
2019-01-15T23:54:49.438Z,1.67
2019-01-15T23:57:50.711Z,1.67
